Galt, Missouri
Current Conditions -  °F | °C
As of 1:53 AM on Tuesday 27 Jan 2015 (Local Time) from KLWD Reporting Station
Clear Clear  
Wind Chill: 28°   Ceiling: Unl
Heat Index: 34°   Visibility: 10mi
Dew Point: 31°   Wind: 7mph
Humidity: 89%   Direction: 350°N
Pressure: 30.02"   Gusts: NA
Location:  40.13°N, 93.39°W
Report Text: KLWD 270753Z AUTO 35006KT 10SM CLR 01/M01 A3002 RMK AO2 SLP173 T00111006
Loading
Personal Weather Stations






























Interactive Weather Map New forecast layout! Learn more

10-Day Weather Forecast

Advertisements
Track Severe Weather on mobile